sensor_id;sensor_type;location;lat;lon;timestamp;P1;durP1;ratioP1;P2;durP2;ratioP2
3337;SDS011;1682;49.286;10.788;2023-12-20T00:01:28;4.73;;;4.33;;
3337;SDS011;1682;49.286;10.788;2023-12-20T00:03:55;4.17;;;3.80;;
3337;SDS011;1682;49.286;10.788;2023-12-20T00:06:23;6.63;;;4.83;;
3337;SDS011;1682;49.286;10.788;2023-12-20T00:08:50;4.57;;;4.17;;
3337;SDS011;1682;49.286;10.788;2023-12-20T00:11:17;4.57;;;4.17;;
3337;SDS011;1682;49.286;10.788;2023-12-20T00:13:44;6.97;;;4.70;;
3337;SDS011;1682;49.286;10.788;2023-12-20T00:16:13;6.00;;;3.90;;
3337;SDS011;1682;49.286;10.788;2023-12-20T00:18:40;5.80;;;5.20;;
3337;SDS011;1682;49.286;10.788;2023-12-20T00:21:07;5.23;;;4.00;;
3337;SDS011;1682;49.286;10.788;2023-12-20T00:23:35;5.43;;;4.50;;
3337;SDS011;1682;49.286;10.788;2023-12-20T00:26:02;6.20;;;4.60;;
3337;SDS011;1682;49.286;10.788;2023-12-20T00:28:29;7.47;;;4.70;;
3337;SDS011;1682;49.286;10.788;2023-12-20T00:30:57;8.37;;;5.40;;
3337;SDS011;1682;49.286;10.788;2023-12-20T00:33:26;5.20;;;4.30;;
3337;SDS011;1682;49.286;10.788;2023-12-20T00:35:53;7.60;;;5.37;;
3337;SDS011;1682;49.286;10.788;2023-12-20T00:38:20;7.13;;;4.67;;
3337;SDS011;1682;49.286;10.788;2023-12-20T00:40:47;4.90;;;3.90;;
3337;SDS011;1682;49.286;10.788;2023-12-20T00:43:15;11.57;;;5.30;;
3337;SDS011;1682;49.286;10.788;2023-12-20T00:45:43;4.17;;;3.70;;
3337;SDS011;1682;49.286;10.788;2023-12-20T00:48:10;4.70;;;4.07;;
3337;SDS011;1682;49.286;10.788;2023-12-20T00:50:40;4.27;;;3.87;;
3337;SDS011;1682;49.286;10.788;2023-12-20T00:53:08;6.50;;;4.90;;
3337;SDS011;1682;49.286;10.788;2023-12-20T00:55:35;5.67;;;4.30;;
3337;SDS011;1682;49.286;10.788;2023-12-20T00:58:02;9.00;;;4.10;;
3337;SDS011;1682;49.286;10.788;2023-12-20T01:00:30;4.57;;;4.13;;
3337;SDS011;1682;49.286;10.788;2023-12-20T01:02:57;5.83;;;5.37;;
3337;SDS011;1682;49.286;10.788;2023-12-20T01:05:24;4.33;;;3.90;;
3337;SDS011;1682;49.286;10.788;2023-12-20T01:07:52;3.30;;;3.00;;
3337;SDS011;1682;49.286;10.788;2023-12-20T01:10:20;4.13;;;3.60;;
3337;SDS011;1682;49.286;10.788;2023-12-20T01:12:47;4.47;;;4.07;;
3337;SDS011;1682;49.286;10.788;2023-12-20T01:15:15;4.50;;;4.10;;
3337;SDS011;1682;49.286;10.788;2023-12-20T01:17:42;4.00;;;3.53;;
3337;SDS011;1682;49.286;10.788;2023-12-20T01:20:09;5.70;;;3.83;;
3337;SDS011;1682;49.286;10.788;2023-12-20T01:22:37;4.00;;;3.60;;
3337;SDS011;1682;49.286;10.788;2023-12-20T01:25:06;3.40;;;3.10;;
3337;SDS011;1682;49.286;10.788;2023-12-20T01:27:33;4.30;;;3.90;;
3337;SDS011;1682;49.286;10.788;2023-12-20T01:30:00;4.47;;;3.87;;
3337;SDS011;1682;49.286;10.788;2023-12-20T01:32:27;3.00;;;2.60;;
3337;SDS011;1682;49.286;10.788;2023-12-20T01:34:54;3.90;;;3.60;;
3337;SDS011;1682;49.286;10.788;2023-12-20T01:37:22;3.33;;;2.87;;
3337;SDS011;1682;49.286;10.788;2023-12-20T01:39:50;3.27;;;3.00;;
3337;SDS011;1682;49.286;10.788;2023-12-20T01:42:19;2.53;;;2.30;;
3337;SDS011;1682;49.286;10.788;2023-12-20T01:44:47;5.17;;;3.80;;
3337;SDS011;1682;49.286;10.788;2023-12-20T01:47:14;2.93;;;2.67;;
3337;SDS011;1682;49.286;10.788;2023-12-20T01:49:41;2.70;;;2.47;;
3337;SDS011;1682;49.286;10.788;2023-12-20T01:52:08;2.50;;;2.30;;
3337;SDS011;1682;49.286;10.788;2023-12-20T01:54:36;1.93;;;1.83;;
3337;SDS011;1682;49.286;10.788;2023-12-20T01:57:05;2.30;;;2.20;;
3337;SDS011;1682;49.286;10.788;2023-12-20T01:59:34;2.20;;;2.00;;
3337;SDS011;1682;49.286;10.788;2023-12-20T02:02:02;2.13;;;2.03;;
3337;SDS011;1682;49.286;10.788;2023-12-20T02:04:30;4.57;;;1.93;;
3337;SDS011;1682;49.286;10.788;2023-12-20T02:06:57;2.60;;;2.40;;
3337;SDS011;1682;49.286;10.788;2023-12-20T02:09:25;2.20;;;2.00;;
3337;SDS011;1682;49.286;10.788;2023-12-20T02:11:53;1.63;;;1.53;;
3337;SDS011;1682;49.286;10.788;2023-12-20T02:14:22;1.90;;;1.80;;
3337;SDS011;1682;49.286;10.788;2023-12-20T02:16:50;1.73;;;1.63;;
3337;SDS011;1682;49.286;10.788;2023-12-20T02:19:18;2.00;;;1.90;;
3337;SDS011;1682;49.286;10.788;2023-12-20T02:21:48;1.87;;;1.77;;
3337;SDS011;1682;49.286;10.788;2023-12-20T02:24:15;1.90;;;1.73;;
3337;SDS011;1682;49.286;10.788;2023-12-20T02:26:42;2.30;;;2.10;;
3337;SDS011;1682;49.286;10.788;2023-12-20T02:29:10;3.73;;;2.00;;
3337;SDS011;1682;49.286;10.788;2023-12-20T02:31:37;1.50;;;1.40;;
3337;SDS011;1682;49.286;10.788;2023-12-20T02:34:04;1.60;;;1.50;;
3337;SDS011;1682;49.286;10.788;2023-12-20T02:36:31;2.53;;;1.37;;
3337;SDS011;1682;49.286;10.788;2023-12-20T02:39:00;1.60;;;1.50;;
3337;SDS011;1682;49.286;10.788;2023-12-20T02:41:27;1.60;;;1.20;;
3337;SDS011;1682;49.286;10.788;2023-12-20T02:43:54;1.00;;;1.00;;
3337;SDS011;1682;49.286;10.788;2023-12-20T02:46:22;1.20;;;1.10;;
3337;SDS011;1682;49.286;10.788;2023-12-20T02:48:50;0.80;;;0.80;;
3337;SDS011;1682;49.286;10.788;2023-12-20T02:51:17;1.00;;;0.90;;
3337;SDS011;1682;49.286;10.788;2023-12-20T02:53:44;1.13;;;1.03;;
3337;SDS011;1682;49.286;10.788;2023-12-20T02:56:12;1.37;;;1.17;;
3337;SDS011;1682;49.286;10.788;2023-12-20T02:58:40;1.33;;;1.27;;
3337;SDS011;1682;49.286;10.788;2023-12-20T03:01:07;1.17;;;1.17;;
3337;SDS011;1682;49.286;10.788;2023-12-20T03:03:34;1.63;;;1.50;;
3337;SDS011;1682;49.286;10.788;2023-12-20T03:06:02;3.40;;;1.13;;
3337;SDS011;1682;49.286;10.788;2023-12-20T03:08:29;1.10;;;1.10;;
3337;SDS011;1682;49.286;10.788;2023-12-20T03:10:56;2.50;;;1.53;;
3337;SDS011;1682;49.286;10.788;2023-12-20T03:13:25;1.50;;;1.40;;
3337;SDS011;1682;49.286;10.788;2023-12-20T03:15:52;1.40;;;1.30;;
3337;SDS011;1682;49.286;10.788;2023-12-20T03:18:19;1.00;;;1.00;;
3337;SDS011;1682;49.286;10.788;2023-12-20T03:20:47;1.10;;;0.90;;
3337;SDS011;1682;49.286;10.788;2023-12-20T03:23:15;1.60;;;1.50;;
3337;SDS011;1682;49.286;10.788;2023-12-20T03:25:43;1.40;;;1.30;;
3337;SDS011;1682;49.286;10.788;2023-12-20T03:28:10;2.00;;;1.00;;
3337;SDS011;1682;49.286;10.788;2023-12-20T03:30:38;3.50;;;1.30;;
3337;SDS011;1682;49.286;10.788;2023-12-20T03:33:05;1.30;;;1.20;;
3337;SDS011;1682;49.286;10.788;2023-12-20T03:35:33;2.60;;;1.30;;
3337;SDS011;1682;49.286;10.788;2023-12-20T03:38:00;1.67;;;1.40;;
3337;SDS011;1682;49.286;10.788;2023-12-20T03:40:27;0.87;;;0.87;;
3337;SDS011;1682;49.286;10.788;2023-12-20T03:42:55;1.00;;;1.00;;
3337;SDS011;1682;49.286;10.788;2023-12-20T03:45:22;1.00;;;0.90;;
3337;SDS011;1682;49.286;10.788;2023-12-20T03:47:50;1.33;;;1.33;;
3337;SDS011;1682;49.286;10.788;2023-12-20T03:50:20;1.60;;;1.10;;
3337;SDS011;1682;49.286;10.788;2023-12-20T03:52:47;1.37;;;1.27;;
3337;SDS011;1682;49.286;10.788;2023-12-20T03:55:15;1.30;;;1.20;;
3337;SDS011;1682;49.286;10.788;2023-12-20T03:57:42;1.57;;;1.30;;
3337;SDS011;1682;49.286;10.788;2023-12-20T04:00:09;1.07;;;0.97;;
3337;SDS011;1682;49.286;10.788;2023-12-20T04:02:37;1.03;;;1.03;;
3337;SDS011;1682;49.286;10.788;2023-12-20T04:05:06;1.43;;;1.33;;
3337;SDS011;1682;49.286;10.788;2023-12-20T04:07:34;1.00;;;1.00;;
3337;SDS011;1682;49.286;10.788;2023-12-20T04:10:02;1.00;;;0.90;;
3337;SDS011;1682;49.286;10.788;2023-12-20T04:12:29;1.00;;;1.00;;
3337;SDS011;1682;49.286;10.788;2023-12-20T04:14:56;1.30;;;1.00;;
3337;SDS011;1682;49.286;10.788;2023-12-20T04:17:24;1.00;;;1.00;;
3337;SDS011;1682;49.286;10.788;2023-12-20T04:19:51;1.40;;;1.30;;
3337;SDS011;1682;49.286;10.788;2023-12-20T04:22:20;1.57;;;1.57;;
3337;SDS011;1682;49.286;10.788;2023-12-20T04:24:47;1.30;;;1.20;;
3337;SDS011;1682;49.286;10.788;2023-12-20T04:27:14;1.63;;;1.33;;
3337;SDS011;1682;49.286;10.788;2023-12-20T04:29:41;1.30;;;0.97;;
3337;SDS011;1682;49.286;10.788;2023-12-20T04:32:09;1.50;;;1.40;;
3337;SDS011;1682;49.286;10.788;2023-12-20T04:34:38;1.57;;;1.47;;
3337;SDS011;1682;49.286;10.788;2023-12-20T04:37:06;1.00;;;1.00;;
3337;SDS011;1682;49.286;10.788;2023-12-20T04:39:34;0.90;;;0.90;;
3337;SDS011;1682;49.286;10.788;2023-12-20T04:42:02;1.00;;;0.90;;
3337;SDS011;1682;49.286;10.788;2023-12-20T04:44:29;1.27;;;1.10;;
3337;SDS011;1682;49.286;10.788;2023-12-20T04:46:56;0.90;;;0.90;;
3337;SDS011;1682;49.286;10.788;2023-12-20T04:49:23;1.77;;;1.30;;
3337;SDS011;1682;49.286;10.788;2023-12-20T04:51:51;2.10;;;1.10;;
3337;SDS011;1682;49.286;10.788;2023-12-20T04:54:18;1.10;;;1.00;;
3337;SDS011;1682;49.286;10.788;2023-12-20T04:56:46;0.83;;;0.83;;
3337;SDS011;1682;49.286;10.788;2023-12-20T04:59:13;1.70;;;1.60;;
3337;SDS011;1682;49.286;10.788;2023-12-20T05:01:41;0.97;;;0.97;;
3337;SDS011;1682;49.286;10.788;2023-12-20T05:04:08;1.33;;;1.13;;
3337;SDS011;1682;49.286;10.788;2023-12-20T05:06:35;1.50;;;1.40;;
3337;SDS011;1682;49.286;10.788;2023-12-20T05:09:02;1.00;;;1.00;;
3337;SDS011;1682;49.286;10.788;2023-12-20T05:11:30;1.37;;;1.27;;
3337;SDS011;1682;49.286;10.788;2023-12-20T05:13:58;0.80;;;0.80;;
3337;SDS011;1682;49.286;10.788;2023-12-20T05:16:25;1.50;;;1.40;;
3337;SDS011;1682;49.286;10.788;2023-12-20T05:18:52;0.90;;;0.90;;
3337;SDS011;1682;49.286;10.788;2023-12-20T05:21:21;1.93;;;1.23;;
3337;SDS011;1682;49.286;10.788;2023-12-20T05:23:48;0.90;;;0.90;;
3337;SDS011;1682;49.286;10.788;2023-12-20T05:26:15;0.97;;;0.97;;
3337;SDS011;1682;49.286;10.788;2023-12-20T05:28:42;1.33;;;1.33;;
3337;SDS011;1682;49.286;10.788;2023-12-20T05:31:11;1.30;;;1.30;;
3337;SDS011;1682;49.286;10.788;2023-12-20T05:33:38;1.10;;;1.00;;
3337;SDS011;1682;49.286;10.788;2023-12-20T05:36:06;1.37;;;1.20;;
3337;SDS011;1682;49.286;10.788;2023-12-20T05:38:36;1.00;;;1.00;;
3337;SDS011;1682;49.286;10.788;2023-12-20T05:41:03;1.17;;;1.07;;
3337;SDS011;1682;49.286;10.788;2023-12-20T05:43:30;1.27;;;1.20;;
3337;SDS011;1682;49.286;10.788;2023-12-20T05:45:58;1.33;;;1.23;;
3337;SDS011;1682;49.286;10.788;2023-12-20T05:48:26;1.90;;;1.80;;
3337;SDS011;1682;49.286;10.788;2023-12-20T05:50:54;2.00;;;1.43;;
3337;SDS011;1682;49.286;10.788;2023-12-20T05:53:21;2.07;;;1.97;;
3337;SDS011;1682;49.286;10.788;2023-12-20T05:55:48;1.03;;;1.00;;
3337;SDS011;1682;49.286;10.788;2023-12-20T05:58:15;1.70;;;1.60;;
3337;SDS011;1682;49.286;10.788;2023-12-20T06:00:42;2.30;;;2.20;;
3337;SDS011;1682;49.286;10.788;2023-12-20T06:03:10;1.50;;;1.40;;
3337;SDS011;1682;49.286;10.788;2023-12-20T06:05:38;3.03;;;2.80;;
3337;SDS011;1682;49.286;10.788;2023-12-20T06:08:06;2.67;;;2.07;;
3337;SDS011;1682;49.286;10.788;2023-12-20T06:10:33;3.70;;;2.53;;
3337;SDS011;1682;49.286;10.788;2023-12-20T06:13:00;6.07;;;4.00;;
3337;SDS011;1682;49.286;10.788;2023-12-20T06:15:32;2.60;;;2.40;;
3337;SDS011;1682;49.286;10.788;2023-12-20T06:18:00;3.50;;;2.50;;
3337;SDS011;1682;49.286;10.788;2023-12-20T06:20:28;7.13;;;5.27;;
3337;SDS011;1682;49.286;10.788;2023-12-20T06:22:57;3.27;;;2.97;;
3337;SDS011;1682;49.286;10.788;2023-12-20T06:25:24;3.10;;;2.80;;
3337;SDS011;1682;49.286;10.788;2023-12-20T06:27:52;3.07;;;2.80;;
3337;SDS011;1682;49.286;10.788;2023-12-20T06:30:19;4.47;;;3.67;;
3337;SDS011;1682;49.286;10.788;2023-12-20T06:32:46;4.13;;;3.80;;
3337;SDS011;1682;49.286;10.788;2023-12-20T06:35:13;2.90;;;2.70;;
3337;SDS011;1682;49.286;10.788;2023-12-20T06:37:41;2.57;;;2.37;;
3337;SDS011;1682;49.286;10.788;2023-12-20T06:40:10;3.70;;;3.40;;
3337;SDS011;1682;49.286;10.788;2023-12-20T06:42:37;6.13;;;5.53;;
3337;SDS011;1682;49.286;10.788;2023-12-20T06:45:05;3.23;;;3.00;;
3337;SDS011;1682;49.286;10.788;2023-12-20T06:47:32;2.93;;;2.73;;
3337;SDS011;1682;49.286;10.788;2023-12-20T06:49:59;3.23;;;3.03;;
3337;SDS011;1682;49.286;10.788;2023-12-20T06:52:26;5.93;;;3.50;;
3337;SDS011;1682;49.286;10.788;2023-12-20T06:54:54;3.57;;;3.27;;
3337;SDS011;1682;49.286;10.788;2023-12-20T06:57:22;3.63;;;3.33;;
3337;SDS011;1682;49.286;10.788;2023-12-20T06:59:51;4.63;;;4.23;;
3337;SDS011;1682;49.286;10.788;2023-12-20T07:02:18;2.80;;;2.60;;
3337;SDS011;1682;49.286;10.788;2023-12-20T07:04:47;3.20;;;2.90;;
3337;SDS011;1682;49.286;10.788;2023-12-20T07:07:14;2.27;;;2.10;;
3337;SDS011;1682;49.286;10.788;2023-12-20T07:09:42;2.90;;;2.70;;
3337;SDS011;1682;49.286;10.788;2023-12-20T07:12:09;3.10;;;2.80;;
3337;SDS011;1682;49.286;10.788;2023-12-20T07:14:38;3.40;;;3.13;;
3337;SDS011;1682;49.286;10.788;2023-12-20T07:17:05;3.40;;;3.10;;
3337;SDS011;1682;49.286;10.788;2023-12-20T07:19:36;3.63;;;2.93;;
3337;SDS011;1682;49.286;10.788;2023-12-20T07:22:03;4.60;;;2.77;;
3337;SDS011;1682;49.286;10.788;2023-12-20T07:24:30;2.57;;;2.33;;
3337;SDS011;1682;49.286;10.788;2023-12-20T07:26:58;4.40;;;4.00;;
3337;SDS011;1682;49.286;10.788;2023-12-20T07:29:25;3.33;;;3.00;;
3337;SDS011;1682;49.286;10.788;2023-12-20T07:31:54;3.37;;;2.67;;
3337;SDS011;1682;49.286;10.788;2023-12-20T07:34:21;2.70;;;2.50;;
3337;SDS011;1682;49.286;10.788;2023-12-20T07:36:49;2.30;;;2.13;;
3337;SDS011;1682;49.286;10.788;2023-12-20T07:39:16;3.57;;;3.37;;
3337;SDS011;1682;49.286;10.788;2023-12-20T07:41:43;4.70;;;2.53;;
3337;SDS011;1682;49.286;10.788;2023-12-20T07:44:11;3.00;;;2.80;;
3337;SDS011;1682;49.286;10.788;2023-12-20T07:46:38;3.83;;;3.53;;
3337;SDS011;1682;49.286;10.788;2023-12-20T07:49:07;5.00;;;4.60;;
3337;SDS011;1682;49.286;10.788;2023-12-20T07:51:35;4.30;;;3.80;;
3337;SDS011;1682;49.286;10.788;2023-12-20T07:54:02;4.80;;;4.30;;
3337;SDS011;1682;49.286;10.788;2023-12-20T07:56:30;4.33;;;3.93;;
3337;SDS011;1682;49.286;10.788;2023-12-20T07:58:57;3.67;;;3.37;;
3337;SDS011;1682;49.286;10.788;2023-12-20T08:01:24;4.53;;;4.13;;
3337;SDS011;1682;49.286;10.788;2023-12-20T08:03:51;5.63;;;5.00;;
3337;SDS011;1682;49.286;10.788;2023-12-20T08:06:20;5.70;;;5.00;;
3337;SDS011;1682;49.286;10.788;2023-12-20T08:08:47;4.40;;;4.10;;
3337;SDS011;1682;49.286;10.788;2023-12-20T08:11:14;3.60;;;3.40;;
3337;SDS011;1682;49.286;10.788;2023-12-20T08:13:41;5.10;;;4.30;;
3337;SDS011;1682;49.286;10.788;2023-12-20T08:16:08;3.70;;;3.40;;
3337;SDS011;1682;49.286;10.788;2023-12-20T08:18:38;4.40;;;4.00;;
3337;SDS011;1682;49.286;10.788;2023-12-20T08:21:05;4.23;;;3.83;;
3337;SDS011;1682;49.286;10.788;2023-12-20T08:23:37;5.70;;;3.57;;
3337;SDS011;1682;49.286;10.788;2023-12-20T08:26:04;3.87;;;3.23;;
3337;SDS011;1682;49.286;10.788;2023-12-20T08:28:36;3.43;;;3.13;;
3337;SDS011;1682;49.286;10.788;2023-12-20T08:31:04;3.10;;;2.80;;
3337;SDS011;1682;49.286;10.788;2023-12-20T08:33:31;3.10;;;2.90;;
3337;SDS011;1682;49.286;10.788;2023-12-20T08:35:58;8.70;;;4.80;;
3337;SDS011;1682;49.286;10.788;2023-12-20T08:38:25;5.63;;;5.13;;
3337;SDS011;1682;49.286;10.788;2023-12-20T08:40:54;3.80;;;3.50;;
3337;SDS011;1682;49.286;10.788;2023-12-20T08:43:21;3.03;;;2.83;;
3337;SDS011;1682;49.286;10.788;2023-12-20T08:45:48;3.90;;;3.60;;
3337;SDS011;1682;49.286;10.788;2023-12-20T08:48:15;2.53;;;2.33;;
3337;SDS011;1682;49.286;10.788;2023-12-20T08:50:43;3.70;;;3.40;;
3337;SDS011;1682;49.286;10.788;2023-12-20T08:53:10;3.60;;;3.30;;
3337;SDS011;1682;49.286;10.788;2023-12-20T08:55:38;3.00;;;2.80;;
3337;SDS011;1682;49.286;10.788;2023-12-20T08:58:06;3.23;;;3.03;;
3337;SDS011;1682;49.286;10.788;2023-12-20T09:00:33;4.20;;;3.90;;
3337;SDS011;1682;49.286;10.788;2023-12-20T09:03:01;4.37;;;3.93;;
3337;SDS011;1682;49.286;10.788;2023-12-20T09:05:28;4.10;;;3.53;;
3337;SDS011;1682;49.286;10.788;2023-12-20T09:07:55;3.60;;;3.30;;
3337;SDS011;1682;49.286;10.788;2023-12-20T09:10:22;4.13;;;3.73;;
3337;SDS011;1682;49.286;10.788;2023-12-20T09:12:49;4.30;;;3.90;;
3337;SDS011;1682;49.286;10.788;2023-12-20T09:15:18;3.63;;;3.23;;
3337;SDS011;1682;49.286;10.788;2023-12-20T09:17:45;7.07;;;4.10;;
3337;SDS011;1682;49.286;10.788;2023-12-20T09:20:12;2.87;;;2.60;;
3337;SDS011;1682;49.286;10.788;2023-12-20T09:22:40;3.70;;;3.40;;
3337;SDS011;1682;49.286;10.788;2023-12-20T09:25:08;5.57;;;3.50;;
3337;SDS011;1682;49.286;10.788;2023-12-20T09:27:36;3.67;;;3.37;;
3337;SDS011;1682;49.286;10.788;2023-12-20T09:30:04;3.80;;;3.50;;
3337;SDS011;1682;49.286;10.788;2023-12-20T09:32:32;4.13;;;3.73;;
3337;SDS011;1682;49.286;10.788;2023-12-20T09:35:00;3.03;;;2.83;;
3337;SDS011;1682;49.286;10.788;2023-12-20T09:37:27;3.47;;;3.00;;
3337;SDS011;1682;49.286;10.788;2023-12-20T09:39:54;3.73;;;2.80;;
3337;SDS011;1682;49.286;10.788;2023-12-20T09:42:24;6.63;;;2.40;;
3337;SDS011;1682;49.286;10.788;2023-12-20T09:44:51;2.07;;;1.93;;
3337;SDS011;1682;49.286;10.788;2023-12-20T09:47:19;3.00;;;2.70;;
3337;SDS011;1682;49.286;10.788;2023-12-20T09:49:48;3.10;;;2.30;;
3337;SDS011;1682;49.286;10.788;2023-12-20T09:52:16;2.90;;;2.00;;
3337;SDS011;1682;49.286;10.788;2023-12-20T09:54:44;3.03;;;2.20;;
3337;SDS011;1682;49.286;10.788;2023-12-20T09:57:12;3.90;;;2.47;;
3337;SDS011;1682;49.286;10.788;2023-12-20T09:59:40;4.23;;;2.37;;
3337;SDS011;1682;49.286;10.788;2023-12-20T10:02:08;3.53;;;2.97;;
3337;SDS011;1682;49.286;10.788;2023-12-20T10:04:37;2.47;;;2.27;;
3337;SDS011;1682;49.286;10.788;2023-12-20T10:07:06;3.40;;;2.37;;
3337;SDS011;1682;49.286;10.788;2023-12-20T10:09:33;5.07;;;2.57;;
3337;SDS011;1682;49.286;10.788;2023-12-20T10:12:00;3.53;;;2.63;;
3337;SDS011;1682;49.286;10.788;2023-12-20T10:14:28;3.90;;;2.27;;
3337;SDS011;1682;49.286;10.788;2023-12-20T10:17:00;4.37;;;2.90;;
3337;SDS011;1682;49.286;10.788;2023-12-20T10:19:28;4.80;;;1.80;;
3337;SDS011;1682;49.286;10.788;2023-12-20T10:21:55;8.33;;;2.40;;
3337;SDS011;1682;49.286;10.788;2023-12-20T10:24:24;6.93;;;2.47;;
3337;SDS011;1682;49.286;10.788;2023-12-20T10:27:00;4.57;;;2.00;;
3337;SDS011;1682;49.286;10.788;2023-12-20T10:29:31;2.63;;;2.43;;
3337;SDS011;1682;49.286;10.788;2023-12-20T10:31:58;2.83;;;2.20;;
3337;SDS011;1682;49.286;10.788;2023-12-20T10:34:25;4.40;;;2.33;;
3337;SDS011;1682;49.286;10.788;2023-12-20T10:36:52;2.40;;;2.20;;
3337;SDS011;1682;49.286;10.788;2023-12-20T10:39:20;2.60;;;2.03;;
3337;SDS011;1682;49.286;10.788;2023-12-20T10:41:49;2.17;;;2.07;;
3337;SDS011;1682;49.286;10.788;2023-12-20T10:44:16;2.27;;;1.87;;
3337;SDS011;1682;49.286;10.788;2023-12-20T10:46:43;2.90;;;2.37;;
3337;SDS011;1682;49.286;10.788;2023-12-20T10:49:16;4.93;;;3.53;;
3337;SDS011;1682;49.286;10.788;2023-12-20T10:51:44;3.33;;;1.97;;
3337;SDS011;1682;49.286;10.788;2023-12-20T10:54:13;3.20;;;2.13;;
3337;SDS011;1682;49.286;10.788;2023-12-20T10:56:40;4.60;;;2.10;;
3337;SDS011;1682;49.286;10.788;2023-12-20T10:59:08;4.50;;;2.03;;
3337;SDS011;1682;49.286;10.788;2023-12-20T11:01:37;3.30;;;2.30;;
3337;SDS011;1682;49.286;10.788;2023-12-20T11:04:05;4.53;;;4.20;;
3337;SDS011;1682;49.286;10.788;2023-12-20T11:06:36;9.93;;;5.13;;
3337;SDS011;1682;49.286;10.788;2023-12-20T11:09:10;8.97;;;6.07;;
3337;SDS011;1682;49.286;10.788;2023-12-20T11:11:43;4.63;;;3.60;;
3337;SDS011;1682;49.286;10.788;2023-12-20T11:14:16;4.27;;;3.30;;
3337;SDS011;1682;49.286;10.788;2023-12-20T11:16:45;4.20;;;2.33;;
3337;SDS011;1682;49.286;10.788;2023-12-20T11:19:12;4.17;;;2.03;;
3337;SDS011;1682;49.286;10.788;2023-12-20T11:21:40;2.50;;;2.30;;
3337;SDS011;1682;49.286;10.788;2023-12-20T11:24:07;2.23;;;2.03;;
3337;SDS011;1682;49.286;10.788;2023-12-20T11:26:35;2.67;;;2.47;;
3337;SDS011;1682;49.286;10.788;2023-12-20T11:31:49;3.97;;;2.00;;
3337;SDS011;1682;49.286;10.788;2023-12-20T11:34:16;3.90;;;2.77;;
3337;SDS011;1682;49.286;10.788;2023-12-20T11:36:44;2.03;;;1.83;;
3337;SDS011;1682;49.286;10.788;2023-12-20T11:39:11;2.93;;;2.23;;
3337;SDS011;1682;49.286;10.788;2023-12-20T11:41:38;5.93;;;3.30;;
3337;SDS011;1682;49.286;10.788;2023-12-20T11:44:05;4.40;;;2.20;;
3337;SDS011;1682;49.286;10.788;2023-12-20T11:46:34;2.20;;;2.00;;
3337;SDS011;1682;49.286;10.788;2023-12-20T11:49:02;6.90;;;3.40;;
3337;SDS011;1682;49.286;10.788;2023-12-20T11:51:29;10.50;;;6.60;;
3337;SDS011;1682;49.286;10.788;2023-12-20T11:53:57;9.30;;;5.47;;
3337;SDS011;1682;49.286;10.788;2023-12-20T11:56:24;4.70;;;3.00;;
3337;SDS011;1682;49.286;10.788;2023-12-20T11:58:51;3.23;;;3.03;;
3337;SDS011;1682;49.286;10.788;2023-12-20T12:01:19;5.60;;;2.00;;
3337;SDS011;1682;49.286;10.788;2023-12-20T12:03:46;2.50;;;2.03;;
3337;SDS011;1682;49.286;10.788;2023-12-20T12:06:15;2.77;;;2.57;;
3337;SDS011;1682;49.286;10.788;2023-12-20T12:08:42;3.70;;;1.93;;
3337;SDS011;1682;49.286;10.788;2023-12-20T12:11:09;2.67;;;1.90;;
3337;SDS011;1682;49.286;10.788;2023-12-20T12:13:37;5.03;;;2.20;;
3337;SDS011;1682;49.286;10.788;2023-12-20T12:16:04;6.40;;;2.80;;
3337;SDS011;1682;49.286;10.788;2023-12-20T12:18:31;3.30;;;1.80;;
3337;SDS011;1682;49.286;10.788;2023-12-20T12:21:00;1.90;;;1.80;;
3337;SDS011;1682;49.286;10.788;2023-12-20T12:23:29;5.20;;;2.20;;
3337;SDS011;1682;49.286;10.788;2023-12-20T12:25:56;3.87;;;2.87;;
3337;SDS011;1682;49.286;10.788;2023-12-20T12:28:25;1.87;;;1.77;;
3337;SDS011;1682;49.286;10.788;2023-12-20T12:30:56;4.30;;;2.00;;
3337;SDS011;1682;49.286;10.788;2023-12-20T12:33:24;4.57;;;2.93;;
3337;SDS011;1682;49.286;10.788;2023-12-20T12:35:52;3.00;;;2.80;;
3337;SDS011;1682;49.286;10.788;2023-12-20T12:38:20;3.70;;;2.20;;
3337;SDS011;1682;49.286;10.788;2023-12-20T12:40:49;2.90;;;2.70;;
3337;SDS011;1682;49.286;10.788;2023-12-20T12:43:18;2.70;;;2.17;;
3337;SDS011;1682;49.286;10.788;2023-12-20T12:45:47;4.27;;;2.50;;
3337;SDS011;1682;49.286;10.788;2023-12-20T12:48:15;3.90;;;2.47;;
3337;SDS011;1682;49.286;10.788;2023-12-20T12:50:42;1.83;;;1.73;;
3337;SDS011;1682;49.286;10.788;2023-12-20T12:53:09;2.57;;;2.30;;
3337;SDS011;1682;49.286;10.788;2023-12-20T12:55:36;3.60;;;2.17;;
3337;SDS011;1682;49.286;10.788;2023-12-20T12:58:05;2.97;;;2.67;;
3337;SDS011;1682;49.286;10.788;2023-12-20T13:00:32;4.20;;;2.90;;
3337;SDS011;1682;49.286;10.788;2023-12-20T13:02:59;9.50;;;5.47;;
3337;SDS011;1682;49.286;10.788;2023-12-20T13:05:26;6.63;;;3.47;;
3337;SDS011;1682;49.286;10.788;2023-12-20T13:07:54;9.70;;;4.80;;
3337;SDS011;1682;49.286;10.788;2023-12-20T13:10:21;13.97;;;7.07;;
3337;SDS011;1682;49.286;10.788;2023-12-20T13:12:51;7.20;;;5.83;;
3337;SDS011;1682;49.286;10.788;2023-12-20T13:15:19;7.10;;;5.70;;
3337;SDS011;1682;49.286;10.788;2023-12-20T13:17:46;7.13;;;3.90;;
3337;SDS011;1682;49.286;10.788;2023-12-20T13:20:14;3.90;;;2.80;;
3337;SDS011;1682;49.286;10.788;2023-12-20T13:22:41;2.57;;;2.37;;
3337;SDS011;1682;49.286;10.788;2023-12-20T13:25:08;3.87;;;2.47;;
3337;SDS011;1682;49.286;10.788;2023-12-20T13:27:35;4.97;;;2.60;;
3337;SDS011;1682;49.286;10.788;2023-12-20T13:30:03;2.57;;;1.70;;
3337;SDS011;1682;49.286;10.788;2023-12-20T13:32:32;3.53;;;2.60;;
3337;SDS011;1682;49.286;10.788;2023-12-20T13:34:59;5.13;;;3.60;;
3337;SDS011;1682;49.286;10.788;2023-12-20T13:37:26;4.00;;;3.13;;
3337;SDS011;1682;49.286;10.788;2023-12-20T13:39:54;3.77;;;3.40;;
3337;SDS011;1682;49.286;10.788;2023-12-20T13:42:20;4.63;;;1.93;;
3337;SDS011;1682;49.286;10.788;2023-12-20T13:44:47;10.43;;;3.37;;
3337;SDS011;1682;49.286;10.788;2023-12-20T13:47:14;8.57;;;6.50;;
3337;SDS011;1682;49.286;10.788;2023-12-20T13:49:43;12.63;;;8.63;;
3337;SDS011;1682;49.286;10.788;2023-12-20T13:52:10;5.90;;;4.27;;
3337;SDS011;1682;49.286;10.788;2023-12-20T13:54:38;2.27;;;2.07;;
3337;SDS011;1682;49.286;10.788;2023-12-20T13:57:05;2.63;;;2.10;;
3337;SDS011;1682;49.286;10.788;2023-12-20T13:59:32;2.10;;;1.97;;
3337;SDS011;1682;49.286;10.788;2023-12-20T14:02:00;5.63;;;2.40;;
3337;SDS011;1682;49.286;10.788;2023-12-20T14:04:28;2.77;;;1.53;;
3337;SDS011;1682;49.286;10.788;2023-12-20T14:06:57;3.93;;;2.30;;
3337;SDS011;1682;49.286;10.788;2023-12-20T14:09:24;2.17;;;2.07;;
3337;SDS011;1682;49.286;10.788;2023-12-20T14:11:51;6.67;;;3.70;;
3337;SDS011;1682;49.286;10.788;2023-12-20T14:14:19;13.47;;;8.30;;
3337;SDS011;1682;49.286;10.788;2023-12-20T14:16:47;7.90;;;4.40;;
3337;SDS011;1682;49.286;10.788;2023-12-20T14:19:14;5.23;;;3.20;;
3337;SDS011;1682;49.286;10.788;2023-12-20T14:21:41;6.57;;;3.00;;
3337;SDS011;1682;49.286;10.788;2023-12-20T14:24:12;3.73;;;3.43;;
3337;SDS011;1682;49.286;10.788;2023-12-20T14:26:40;2.50;;;2.30;;
3337;SDS011;1682;49.286;10.788;2023-12-20T14:29:07;6.77;;;2.37;;
3337;SDS011;1682;49.286;10.788;2023-12-20T14:31:34;2.20;;;2.10;;
3337;SDS011;1682;49.286;10.788;2023-12-20T14:34:03;6.57;;;2.37;;
3337;SDS011;1682;49.286;10.788;2023-12-20T14:36:30;3.10;;;2.77;;
3337;SDS011;1682;49.286;10.788;2023-12-20T14:38:56;6.30;;;2.90;;
3337;SDS011;1682;49.286;10.788;2023-12-20T14:41:25;8.80;;;2.80;;
3337;SDS011;1682;49.286;10.788;2023-12-20T14:43:53;2.73;;;2.50;;
3337;SDS011;1682;49.286;10.788;2023-12-20T14:46:20;9.33;;;2.63;;
3337;SDS011;1682;49.286;10.788;2023-12-20T14:48:47;3.30;;;2.63;;
3337;SDS011;1682;49.286;10.788;2023-12-20T14:51:15;3.20;;;3.00;;
3337;SDS011;1682;49.286;10.788;2023-12-20T14:53:42;2.93;;;2.00;;
3337;SDS011;1682;49.286;10.788;2023-12-20T14:56:12;4.63;;;2.80;;
3337;SDS011;1682;49.286;10.788;2023-12-20T14:58:41;2.53;;;2.00;;
3337;SDS011;1682;49.286;10.788;2023-12-20T15:01:08;8.73;;;2.33;;
3337;SDS011;1682;49.286;10.788;2023-12-20T15:03:35;3.13;;;2.80;;
3337;SDS011;1682;49.286;10.788;2023-12-20T15:06:04;7.33;;;4.97;;